createdAt,value
2018-09-04T00:01:26.789Z,16.89
2018-09-04T00:03:55.127Z,16.96
2018-09-04T00:06:23.475Z,17.02
2018-09-04T00:08:51.799Z,16.94
2018-09-04T00:11:20.151Z,16.96
2018-09-04T00:14:03.164Z,17.02
2018-09-04T00:16:31.516Z,16.99
2018-09-04T00:18:59.836Z,17.09
2018-09-04T00:21:28.176Z,17.07
2018-09-04T00:23:56.492Z,16.95
2018-09-04T00:26:24.879Z,17.03
2018-09-04T00:28:53.203Z,16.97
2018-09-04T00:31:21.557Z,16.98
2018-09-04T00:33:49.908Z,16.98
2018-09-04T00:36:18.240Z,17.00
2018-09-04T00:38:46.620Z,17.00
2018-09-04T00:41:14.976Z,16.95
2018-09-04T00:43:43.748Z,16.85
2018-09-04T00:46:12.097Z,16.86
2018-09-04T00:48:40.448Z,16.96
2018-09-04T00:51:08.832Z,16.74
2018-09-04T00:53:37.424Z,16.80
2018-09-04T00:56:05.786Z,16.87
2018-09-04T00:58:34.144Z,16.85
2018-09-04T01:01:02.504Z,16.78
2018-09-04T01:03:30.824Z,16.81
2018-09-04T01:05:59.203Z,16.76
2018-09-04T01:08:27.535Z,16.74
2018-09-04T01:10:56.471Z,16.78
2018-09-04T01:13:24.807Z,16.60
2018-09-04T01:15:53.181Z,16.67
2018-09-04T01:18:21.813Z,16.64
2018-09-04T01:20:50.168Z,16.68
2018-09-04T01:23:18.484Z,16.67
2018-09-04T01:25:46.828Z,16.59
2018-09-04T01:28:15.160Z,16.57
2018-09-04T01:30:43.513Z,16.60
2018-09-04T01:33:11.851Z,16.61
2018-09-04T01:35:40.275Z,16.62
2018-09-04T01:38:08.597Z,16.56
2018-09-04T01:40:36.927Z,16.54
2018-09-04T01:43:05.907Z,16.60
2018-09-04T01:45:35.064Z,16.59
2018-09-04T01:48:03.431Z,16.67
2018-09-04T01:50:31.757Z,16.64
2018-09-04T01:53:00.108Z,16.68
2018-09-04T01:55:28.451Z,16.65
2018-09-04T01:57:56.820Z,16.66
2018-09-04T02:00:25.132Z,16.72
2018-09-04T02:02:53.990Z,16.70
2018-09-04T02:05:23.328Z,16.64
2018-09-04T02:07:51.789Z,16.69
2018-09-04T02:10:20.140Z,16.56
2018-09-04T02:12:48.496Z,16.53
2018-09-04T02:15:17.243Z,16.56
2018-09-04T02:17:45.589Z,16.60
2018-09-04T02:20:13.940Z,16.70
2018-09-04T02:22:42.359Z,16.59
2018-09-04T02:25:10.699Z,16.70
2018-09-04T02:27:39.276Z,16.65
2018-09-04T02:30:07.628Z,16.60
2018-09-04T02:32:35.989Z,16.56
2018-09-04T02:35:04.588Z,16.67
2018-09-04T02:37:32.940Z,16.69
2018-09-04T02:40:01.277Z,16.69
2018-09-04T02:42:29.644Z,16.65
2018-09-04T02:44:57.956Z,16.60
2018-09-04T02:47:26.318Z,16.58
2018-09-04T02:49:54.653Z,16.71
2018-09-04T02:52:23.015Z,16.62
2018-09-04T02:54:51.351Z,16.66
2018-09-04T02:57:19.696Z,16.61
2018-09-04T02:59:48.549Z,16.56
2018-09-04T03:02:16.928Z,16.43
2018-09-04T03:04:45.275Z,16.44
2018-09-04T03:07:13.632Z,16.35
2018-09-04T03:09:42.292Z,16.35
2018-09-04T03:12:10.646Z,16.35
2018-09-04T03:14:38.977Z,16.39
2018-09-04T03:17:07.360Z,16.41
2018-09-04T03:19:35.676Z,16.38
2018-09-04T03:22:04.037Z,16.40
2018-09-04T03:24:32.688Z,16.32
2018-09-04T03:27:01.041Z,16.31
2018-09-04T03:29:29.379Z,16.28
2018-09-04T03:31:57.720Z,16.21
2018-09-04T03:34:26.040Z,16.16
2018-09-04T03:36:54.415Z,16.14
2018-09-04T03:39:22.767Z,16.03
2018-09-04T03:41:51.088Z,15.94
2018-09-04T03:44:19.567Z,15.84
2018-09-04T03:46:47.833Z,15.73
2018-09-04T03:49:16.187Z,15.58
2018-09-04T03:51:44.518Z,15.49
2018-09-04T03:54:12.888Z,15.49
2018-09-04T03:56:41.240Z,15.38
2018-09-04T03:59:09.608Z,15.40
2018-09-04T04:01:37.944Z,15.53
2018-09-04T04:04:06.324Z,15.54
2018-09-04T04:06:34.807Z,15.54
2018-09-04T04:09:03.783Z,15.63
2018-09-04T04:11:32.080Z,15.68
2018-09-04T04:14:00.419Z,15.74
2018-09-04T04:16:28.747Z,15.81
2018-09-04T04:18:57.090Z,15.81
2018-09-04T04:21:25.417Z,15.80
2018-09-04T04:23:53.791Z,15.74
2018-09-04T04:26:22.107Z,15.62
2018-09-04T04:28:50.502Z,15.39
2018-09-04T04:31:18.824Z,15.14
2018-09-04T04:33:47.155Z,14.96
2018-09-04T04:36:15.481Z,14.83
2018-09-04T04:38:43.844Z,14.62
2018-09-04T04:41:12.164Z,14.47
2018-09-04T04:43:40.516Z,14.32
2018-09-04T04:46:08.844Z,14.35
2018-09-04T04:48:37.212Z,14.27
2018-09-04T04:51:05.732Z,14.22
2018-09-04T04:53:34.084Z,14.30
2018-09-04T04:56:02.403Z,14.30
2018-09-04T04:58:30.785Z,14.39
2018-09-04T05:00:59.228Z,14.58
2018-09-04T05:03:27.580Z,14.62
2018-09-04T05:05:55.920Z,14.72
2018-09-04T05:08:24.265Z,14.83
2018-09-04T05:10:53.050Z,15.13
2018-09-04T05:13:21.427Z,15.27
2018-09-04T05:15:49.748Z,15.39
2018-09-04T05:18:18.140Z,15.33
2018-09-04T05:20:46.492Z,15.47
2018-09-04T05:23:14.840Z,15.52
2018-09-04T05:25:43.676Z,15.53
2018-09-04T05:28:12.027Z,15.69
2018-09-04T05:30:40.389Z,15.76
2018-09-04T05:33:14.084Z,15.86
2018-09-04T05:35:46.596Z,15.86
2018-09-04T05:38:14.933Z,16.05
2018-09-04T05:40:43.269Z,16.23
2018-09-04T05:43:15.195Z,16.15
2018-09-04T05:45:43.575Z,16.20
2018-09-04T05:48:14.564Z,16.36
2018-09-04T05:50:42.961Z,16.48
2018-09-04T05:53:11.348Z,16.56
2018-09-04T05:55:39.835Z,16.67
2018-09-04T05:58:08.157Z,16.73
2018-09-04T06:00:38.785Z,16.88
2018-09-04T06:03:07.132Z,17.00
2018-09-04T06:05:35.508Z,17.05
2018-09-04T06:08:03.836Z,17.00
2018-09-04T06:10:32.172Z,17.22
2018-09-04T06:13:00.503Z,17.27
2018-09-04T06:15:29.480Z,17.44
2018-09-04T06:17:57.812Z,17.37
2018-09-04T06:20:26.181Z,17.41
2018-09-04T06:22:54.509Z,17.41
2018-09-04T06:25:22.863Z,17.43
2018-09-04T06:27:51.212Z,17.47
2018-09-04T06:30:19.572Z,17.49
2018-09-04T06:32:47.902Z,17.68
2018-09-04T06:35:16.262Z,17.80
2018-09-04T06:37:44.600Z,17.89
2018-09-04T06:40:12.971Z,17.98
2018-09-04T06:42:43.943Z,18.14
2018-09-04T06:45:12.304Z,18.26
2018-09-04T06:47:40.729Z,18.33
2018-09-04T06:50:09.268Z,18.43
2018-09-04T06:52:37.593Z,18.68
2018-09-04T06:55:06.205Z,18.66
2018-09-04T06:57:34.544Z,18.93
2018-09-04T07:00:02.941Z,19.05
2018-09-04T07:02:31.275Z,19.38
2018-09-04T07:04:59.620Z,19.52
2018-09-04T07:07:27.940Z,19.85
2018-09-04T07:09:56.425Z,20.24
2018-09-04T07:12:24.760Z,20.71
2018-09-04T07:14:53.161Z,21.12
2018-09-04T07:17:21.500Z,23.16
2018-09-04T07:19:49.865Z,26.14
2018-09-04T07:22:18.673Z,28.95
2018-09-04T07:24:47.047Z,29.41
2018-09-04T07:27:15.656Z,29.61
2018-09-04T07:29:44.034Z,30.72
2018-09-04T07:32:12.833Z,31.96
2018-09-04T07:34:41.221Z,31.95
2018-09-04T07:37:09.573Z,31.43
2018-09-04T07:39:37.942Z,32.25
2018-09-04T07:42:06.556Z,32.31
2018-09-04T07:44:35.732Z,33.80
2018-09-04T07:47:04.121Z,31.78
2018-09-04T07:49:32.473Z,32.47
2018-09-04T07:52:00.824Z,32.24
2018-09-04T07:54:29.140Z,32.39
2018-09-04T07:56:57.549Z,32.68
2018-09-04T07:59:25.893Z,32.98
2018-09-04T08:01:54.256Z,33.77
2018-09-04T08:04:22.580Z,33.08
2018-09-04T08:06:52.550Z,34.19
2018-09-04T08:09:20.876Z,33.26
2018-09-04T08:11:49.369Z,34.08
2018-09-04T08:14:17.712Z,34.54
2018-09-04T08:16:46.101Z,35.26
2018-09-04T08:19:14.432Z,34.91
2018-09-04T08:21:42.776Z,34.35
2018-09-04T08:24:11.334Z,35.42
2018-09-04T08:26:39.679Z,35.25
2018-09-04T08:29:07.991Z,35.19
2018-09-04T08:31:36.351Z,35.19
2018-09-04T08:34:04.706Z,35.30
2018-09-04T08:36:33.316Z,31.37
2018-09-04T08:39:01.660Z,31.96
2018-09-04T08:41:30.024Z,32.77
2018-09-04T08:43:58.368Z,35.39
2018-09-04T08:46:26.728Z,34.78
2018-09-04T08:48:55.056Z,36.19
2018-09-04T08:51:23.408Z,37.30
2018-09-04T08:53:51.732Z,37.21
2018-09-04T08:56:20.081Z,36.89
2018-09-04T08:58:48.428Z,37.99
2018-09-04T09:01:16.792Z,36.64
2018-09-04T09:03:45.230Z,37.32
2018-09-04T09:06:13.528Z,37.00
2018-09-04T09:08:41.872Z,36.61
2018-09-04T09:11:10.265Z,37.49
2018-09-04T09:13:39.020Z,36.46
2018-09-04T09:16:07.445Z,34.75
2018-09-04T09:18:35.784Z,36.22
2018-09-04T09:21:04.156Z,37.46
2018-09-04T09:23:32.480Z,35.54
2018-09-04T09:26:01.465Z,36.72
2018-09-04T09:28:29.800Z,38.87
2018-09-04T09:30:58.372Z,37.85
2018-09-04T09:33:26.704Z,37.95
2018-09-04T09:35:55.052Z,38.66
2018-09-04T09:38:23.365Z,39.93
2018-09-04T09:40:51.791Z,40.33
2018-09-04T09:43:20.117Z,35.78
2018-09-04T09:45:48.469Z,35.46
2018-09-04T09:48:16.871Z,37.23
2018-09-04T09:50:45.453Z,38.47
2018-09-04T09:53:13.826Z,38.34
2018-09-04T09:55:45.588Z,40.20
2018-09-04T09:58:13.911Z,39.94
2018-09-04T10:00:47.579Z,40.62
2018-09-04T10:03:21.384Z,41.03
2018-09-04T10:05:49.725Z,40.79
2018-09-04T10:08:18.129Z,42.23
2018-09-04T10:10:46.665Z,41.15
2018-09-04T10:13:15.024Z,39.50
2018-09-04T10:15:43.432Z,37.90
2018-09-04T10:18:11.785Z,34.42
2018-09-04T10:20:40.824Z,32.48
2018-09-04T10:23:09.204Z,32.38
2018-09-04T10:25:37.527Z,34.46
2018-09-04T10:28:05.920Z,32.87
2018-09-04T10:30:34.611Z,31.36
2018-09-04T10:33:04.024Z,30.47
2018-09-04T10:35:39.131Z,29.99
2018-09-04T10:38:13.005Z,30.24
2018-09-04T10:40:47.234Z,29.48
2018-09-04T10:43:17.690Z,29.29
2018-09-04T10:45:56.024Z,29.49
2018-09-04T10:48:29.250Z,29.53
2018-09-04T10:51:04.112Z,29.28
2018-09-04T10:53:38.115Z,29.29
2018-09-04T10:56:08.905Z,29.40
2018-09-04T10:58:42.937Z,31.16
2018-09-04T11:01:12.540Z,35.86
2018-09-04T11:03:42.932Z,36.76
2018-09-04T11:06:15.910Z,36.88
2018-09-04T11:08:46.477Z,34.94
2018-09-04T11:11:16.521Z,32.77
2018-09-04T11:13:46.718Z,32.59
2018-09-04T11:16:16.687Z,36.03
2018-09-04T11:18:46.449Z,37.46
2018-09-04T11:21:19.491Z,38.97
2018-09-04T11:23:50.432Z,39.76
2018-09-04T11:26:20.702Z,40.76
2018-09-04T11:28:53.658Z,38.79
2018-09-04T11:31:32.842Z,38.80
2018-09-04T11:34:04.544Z,37.36
2018-09-04T11:36:34.414Z,36.69
2018-09-04T11:39:04.749Z,34.92
2018-09-04T11:41:38.656Z,35.97
2018-09-04T11:44:17.794Z,37.30
2018-09-04T11:46:48.689Z,39.19
2018-09-04T11:49:21.936Z,39.15
2018-09-04T11:51:51.609Z,38.37
2018-09-04T11:54:21.665Z,37.98
2018-09-04T11:56:52.167Z,37.38
2018-09-04T11:59:22.306Z,36.85
2018-09-04T12:01:57.110Z,36.23
2018-09-04T12:04:27.422Z,38.38
2018-09-04T12:06:59.348Z,39.55
2018-09-04T12:09:29.246Z,37.77
2018-09-04T12:11:59.255Z,34.45
2018-09-04T12:14:33.895Z,32.75
2018-09-04T12:17:06.151Z,32.50
2018-09-04T12:22:29.395Z,29.94
2018-09-04T12:25:00.753Z,28.79
2018-09-04T12:27:30.822Z,29.10
2018-09-04T12:30:00.362Z,29.80
2018-09-04T12:32:28.707Z,31.28
2018-09-04T12:34:58.204Z,34.73
2018-09-04T12:37:26.589Z,36.56
2018-09-04T12:39:58.384Z,34.34
2018-09-04T12:42:27.813Z,33.26
2018-09-04T12:44:58.284Z,31.54
2018-09-04T12:47:26.637Z,31.43
2018-09-04T12:49:55.164Z,33.06
2018-09-04T12:52:23.913Z,31.10
2018-09-04T12:54:52.279Z,33.19
2018-09-04T12:57:21.023Z,33.68
2018-09-04T12:59:49.439Z,32.74
2018-09-04T13:02:17.756Z,33.39
2018-09-04T13:04:46.800Z,35.56
2018-09-04T13:07:15.142Z,36.56
2018-09-04T13:09:43.616Z,37.46
2018-09-04T13:12:11.951Z,37.63
2018-09-04T13:14:40.770Z,37.17
2018-09-04T13:17:08.992Z,36.16
2018-09-04T13:19:38.145Z,36.46
2018-09-04T13:22:06.532Z,37.53
2018-09-04T13:24:35.064Z,38.16
2018-09-04T13:27:04.482Z,38.09
2018-09-04T13:29:34.061Z,38.58
2018-09-04T13:32:02.452Z,39.42
2018-09-04T13:34:32.166Z,38.75
2018-09-04T13:37:00.760Z,39.16
2018-09-04T13:39:30.858Z,36.96
2018-09-04T13:42:01.604Z,37.44
2018-09-04T13:44:36.115Z,36.27
2018-09-04T13:47:09.536Z,34.59
2018-09-04T13:49:40.279Z,33.00
2018-09-04T13:52:13.614Z,35.53
2018-09-04T13:54:44.634Z,36.09
2018-09-04T13:57:14.380Z,33.57
2018-09-04T13:59:45.642Z,31.40
2018-09-04T14:02:15.494Z,29.70
2018-09-04T14:04:50.811Z,28.75
2018-09-04T14:07:30.832Z,28.44
2018-09-04T14:10:00.913Z,27.74
2018-09-04T14:12:31.167Z,27.20
2018-09-04T14:15:01.754Z,27.34
2018-09-04T14:17:31.086Z,27.19
2018-09-04T14:20:03.617Z,26.99
2018-09-04T14:22:39.191Z,26.91
2018-09-04T14:25:11.438Z,26.88
2018-09-04T14:27:44.712Z,26.82
2018-09-04T14:30:16.145Z,26.82
2018-09-04T14:32:45.153Z,26.87
2018-09-04T14:35:18.695Z,26.46
2018-09-04T14:37:48.178Z,26.52
2018-09-04T14:40:18.317Z,26.66
2018-09-04T14:42:49.029Z,26.56
2018-09-04T14:45:19.120Z,26.76
2018-09-04T14:47:52.623Z,26.84
2018-09-04T14:50:22.664Z,27.08
2018-09-04T14:52:55.740Z,27.02
2018-09-04T14:55:26.429Z,27.40
2018-09-04T14:57:56.665Z,27.62
2018-09-04T15:00:34.990Z,27.75
2018-09-04T15:03:07.085Z,28.08
2018-09-04T15:05:37.713Z,28.46
2018-09-04T15:08:10.531Z,29.21
2018-09-04T15:10:40.256Z,30.97
2018-09-04T15:13:09.800Z,32.32
2018-09-04T15:15:41.800Z,32.98
2018-09-04T15:18:12.204Z,32.78
2018-09-04T15:20:41.901Z,32.59
2018-09-04T15:23:12.892Z,32.96
2018-09-04T15:25:53.781Z,32.40
2018-09-04T15:28:25.196Z,32.62
2018-09-04T15:31:00.525Z,32.54
2018-09-04T15:33:30.252Z,32.47
2018-09-04T15:36:01.003Z,31.98
2018-09-04T15:38:30.685Z,31.13
2018-09-04T15:41:04.261Z,30.04
2018-09-04T15:43:37.983Z,30.10
2018-09-04T15:46:11.688Z,30.27
2018-09-04T15:48:41.770Z,30.71
2018-09-04T15:51:15.532Z,30.59
2018-09-04T15:53:48.483Z,30.90
2018-09-04T15:56:21.143Z,30.37
2018-09-04T15:58:56.934Z,29.75
2018-09-04T16:01:27.715Z,29.78
2018-09-04T16:03:58.008Z,29.71
2018-09-04T16:06:27.834Z,29.75
2018-09-04T16:09:05.300Z,29.67
2018-09-04T16:11:39.294Z,29.50
2018-09-04T16:14:12.061Z,28.95
2018-09-04T16:16:44.637Z,28.77
2018-09-04T16:19:19.437Z,28.69
2018-09-04T16:21:49.926Z,28.38
2018-09-04T16:24:23.205Z,28.47
2018-09-04T16:26:58.005Z,28.12
2018-09-04T16:29:27.960Z,28.11
2018-09-04T16:31:57.598Z,27.82
2018-09-04T16:34:27.897Z,27.97
2018-09-04T16:37:00.222Z,27.75
2018-09-04T16:39:30.935Z,27.28
2018-09-04T16:42:04.164Z,26.96
2018-09-04T16:44:37.925Z,26.72
2018-09-04T16:47:13.618Z,26.73
2018-09-04T16:49:43.893Z,26.45
2018-09-04T16:52:18.222Z,26.29
2018-09-04T16:54:50.439Z,26.17
2018-09-04T16:57:21.192Z,26.17
2018-09-04T16:59:55.643Z,25.90
2018-09-04T17:02:25.806Z,25.91
2018-09-04T17:05:02.674Z,25.71
2018-09-04T17:07:32.783Z,25.59
2018-09-04T17:10:04.130Z,25.45
2018-09-04T17:12:34.961Z,25.41
2018-09-04T17:15:05.025Z,25.36
2018-09-04T17:17:34.898Z,25.24
2018-09-04T17:20:06.180Z,25.24
2018-09-04T17:22:39.744Z,25.00
2018-09-04T17:25:09.686Z,25.00
2018-09-04T17:27:39.429Z,24.89
2018-09-04T17:30:12.052Z,24.68
2018-09-04T17:32:41.437Z,24.56
2018-09-04T17:35:11.049Z,24.36
2018-09-04T17:37:41.858Z,24.20
2018-09-04T17:40:11.638Z,24.14
2018-09-04T17:42:43.204Z,24.05
2018-09-04T17:45:13.687Z,23.94
2018-09-04T17:47:51.164Z,23.97
2018-09-04T17:50:21.229Z,23.84
2018-09-04T17:52:51.213Z,23.67
2018-09-04T17:55:26.314Z,23.57
2018-09-04T17:58:03.315Z,23.41
2018-09-04T18:00:36.602Z,23.33
2018-09-04T18:03:08.290Z,23.21
2018-09-04T18:05:39.541Z,23.00
2018-09-04T18:08:12.047Z,22.93
2018-09-04T18:10:42.435Z,22.87
2018-09-04T18:13:14.431Z,22.84
2018-09-04T18:15:48.327Z,22.76
2018-09-04T18:18:18.647Z,22.75
2018-09-04T18:20:48.780Z,22.69
2018-09-04T18:23:19.470Z,22.55
2018-09-04T18:25:52.853Z,22.63
2018-09-04T18:28:28.455Z,22.63
2018-09-04T18:30:58.937Z,22.52
2018-09-04T18:33:29.148Z,22.49
2018-09-04T18:36:01.315Z,22.42
2018-09-04T18:38:34.104Z,22.29
2018-09-04T18:41:07.304Z,22.19
2018-09-04T18:43:38.441Z,22.17
2018-09-04T18:46:11.579Z,22.05
2018-09-04T18:48:45.692Z,21.97
2018-09-04T18:51:17.578Z,22.03
2018-09-04T18:53:49.171Z,22.13
2018-09-04T18:56:23.718Z,22.06
2018-09-04T18:58:54.001Z,22.02
2018-09-04T19:01:25.243Z,21.93
2018-09-04T19:03:56.100Z,21.98
2018-09-04T19:06:26.381Z,21.90
2018-09-04T19:08:56.403Z,21.80
2018-09-04T19:11:29.853Z,21.65
2018-09-04T19:14:02.379Z,21.52
2018-09-04T19:16:36.684Z,21.53
2018-09-04T19:19:09.226Z,21.48
2018-09-04T19:21:39.329Z,21.61
2018-09-04T19:24:14.642Z,21.71
2018-09-04T19:26:49.168Z,21.75
2018-09-04T19:29:24.406Z,21.90
2018-09-04T19:31:57.492Z,21.90
2018-09-04T19:34:28.108Z,21.92
2018-09-04T19:36:57.969Z,21.98
2018-09-04T19:39:28.274Z,21.88
2018-09-04T19:42:02.164Z,21.91
2018-09-04T19:44:36.592Z,21.85
2018-09-04T19:47:09.791Z,21.70
2018-09-04T19:49:40.101Z,21.83
2018-09-04T19:52:10.148Z,21.72
2018-09-04T19:54:40.538Z,21.78
2018-09-04T19:57:10.472Z,21.66
2018-09-04T19:59:40.093Z,21.62
2018-09-04T20:02:12.167Z,21.59
2018-09-04T20:04:42.804Z,21.59
2018-09-04T20:07:19.751Z,21.57
2018-09-04T20:09:49.300Z,21.63
2018-09-04T20:12:18.899Z,21.48
2018-09-04T20:14:49.497Z,21.38
2018-09-04T20:17:22.751Z,21.27
2018-09-04T20:19:52.464Z,21.13
2018-09-04T20:22:23.169Z,21.12
2018-09-04T20:24:54.684Z,21.11
2018-09-04T20:27:27.858Z,21.11
2018-09-04T20:30:02.517Z,21.10
2018-09-04T20:32:35.762Z,21.15
2018-09-04T20:35:07.602Z,21.19
2018-09-04T20:37:41.002Z,21.20
2018-09-04T20:40:14.309Z,21.10
2018-09-04T20:42:45.222Z,21.16
2018-09-04T20:45:14.411Z,20.98
2018-09-04T20:47:42.884Z,21.03
2018-09-04T20:50:11.236Z,21.08
2018-09-04T20:52:39.588Z,21.00
2018-09-04T20:55:07.976Z,20.95
2018-09-04T20:57:38.773Z,21.00
2018-09-04T21:00:20.818Z,21.04
2018-09-04T21:03:00.569Z,20.72
2018-09-04T21:05:40.948Z,20.53
2018-09-04T21:08:24.064Z,20.57
2018-09-04T21:10:53.132Z,20.53
2018-09-04T21:13:21.535Z,20.49
2018-09-04T21:15:49.901Z,20.43
2018-09-04T21:18:18.288Z,20.32
2018-09-04T21:20:46.647Z,20.22
2018-09-04T21:23:15.544Z,20.27
2018-09-04T21:25:43.924Z,20.14
2018-09-04T21:28:12.276Z,20.18
2018-09-04T21:30:40.641Z,20.10
2018-09-04T21:33:09.094Z,20.08
2018-09-04T21:35:37.444Z,20.03
2018-09-04T21:38:05.830Z,20.15
2018-09-04T21:40:34.192Z,20.18
2018-09-04T21:43:02.519Z,20.15
2018-09-04T21:45:30.894Z,20.13
2018-09-04T21:47:59.212Z,20.07
2018-09-04T21:50:27.563Z,20.01
2018-09-04T21:52:55.896Z,19.95
2018-09-04T21:55:24.248Z,20.16
2018-09-04T21:57:52.567Z,20.43
2018-09-04T22:00:25.520Z,20.34
2018-09-04T22:02:54.412Z,20.42
2018-09-04T22:05:24.056Z,20.30
2018-09-04T22:07:53.257Z,20.23
2018-09-04T22:10:21.650Z,20.06
2018-09-04T22:12:50.017Z,20.00
2018-09-04T22:15:18.396Z,19.88
2018-09-04T22:17:46.784Z,19.93
2018-09-04T22:20:15.131Z,19.82
2018-09-04T22:22:43.480Z,19.66
2018-09-04T22:25:11.853Z,19.74
2018-09-04T22:27:40.205Z,19.59
2018-09-04T22:30:08.617Z,19.62
2018-09-04T22:32:36.957Z,19.67
2018-09-04T22:35:05.448Z,19.56
2018-09-04T22:37:33.785Z,19.52
2018-09-04T22:40:02.133Z,19.55
2018-09-04T22:42:30.652Z,19.50
2018-09-04T22:44:59.020Z,19.49
2018-09-04T22:47:27.360Z,19.44
2018-09-04T22:50:00.927Z,19.29
2018-09-04T22:52:31.448Z,19.20
2018-09-04T22:55:02.632Z,19.29
2018-09-04T22:57:31.456Z,19.29
2018-09-04T22:59:59.836Z,19.32
2018-09-04T23:02:28.261Z,19.40
2018-09-04T23:04:57.061Z,19.38
2018-09-04T23:07:25.384Z,19.56
2018-09-04T23:09:53.757Z,19.60
2018-09-04T23:12:22.144Z,19.74
2018-09-04T23:14:50.512Z,19.72
2018-09-04T23:17:18.876Z,19.72
2018-09-04T23:19:47.285Z,19.64
2018-09-04T23:22:15.604Z,19.66
2018-09-04T23:24:43.936Z,19.52
2018-09-04T23:27:12.288Z,19.38
2018-09-04T23:29:40.624Z,19.34
2018-09-04T23:32:08.980Z,19.21
2018-09-04T23:34:37.833Z,19.05
2018-09-04T23:37:06.325Z,18.95
2018-09-04T23:39:34.668Z,19.00
2018-09-04T23:42:03.016Z,18.90
2018-09-04T23:44:31.352Z,18.82
2018-09-04T23:46:59.754Z,18.61
2018-09-04T23:49:28.607Z,18.54
2018-09-04T23:51:56.986Z,18.42
2018-09-04T23:54:25.527Z,18.22
2018-09-04T23:56:53.920Z,18.29
2018-09-04T23:59:22.573Z,18.12
